Time;durP1;ratioP1;P1;durP2;ratioP2;P2;SDS_P1;SDS_P2;PMS_P1;PMS_P2;Temp;Humidity;BMP_temperature;BMP_pressure;BME280_temperature;BME280_humidity;BME280_pressure;Samples;Min_cycle;Max_cycle;Signal;HPM_P1;HPM_P2
2021/08/23 00:13:07;;;;;;;5.67;4.33;;;;;;;17.29;100.00;100698.38;714031;1202;115731;-80
2021/08/23 00:28:10;;;;;;;5.70;4.03;;;;;;;17.27;100.00;100700.36;714025;1199;114267;-80
2021/08/23 00:43:12;;;;;;;5.87;4.20;;;;;;;17.24;100.00;100689.28;714003;1203;114078;-81
2021/08/23 00:58:17;;;;;;;6.08;5.03;;;;;;;17.16;100.00;100670.75;714273;1202;114195;-80
2021/08/23 01:13:22;;;;;;;4.63;3.70;;;;;;;17.08;100.00;100666.30;714089;1176;114637;-80
2021/08/23 01:28:51;;;;;;;5.53;3.95;;;;;;;17.24;100.00;100655.63;714014;1193;114194;-80
2021/08/23 01:43:53;;;;;;;6.15;3.98;;;;;;;17.29;100.00;100649.84;714202;1200;113832;-80
2021/08/23 01:59:00;;;;;;;5.90;3.50;;;;;;;17.10;100.00;100657.17;713875;1176;114370;-80
2021/08/23 02:14:02;;;;;;;6.63;3.93;;;;;;;17.02;100.00;100641.27;713920;1177;114208;-80
2021/08/23 02:29:04;;;;;;;5.70;4.13;;;;;;;17.06;100.00;100637.28;714343;1205;114731;-77
2021/08/23 02:44:06;;;;;;;7.00;3.88;;;;;;;17.13;100.00;100648.06;714195;1177;114532;-77
2021/08/23 02:59:08;;;;;;;4.40;3.37;;;;;;;17.13;100.00;100656.83;714684;1203;115409;-83
2021/08/23 03:14:11;;;;;;;5.60;3.87;;;;;;;17.30;100.00;100670.02;715423;1177;114026;-77
2021/08/23 03:29:13;;;;;;;5.13;3.58;;;;;;;17.23;100.00;100680.48;714583;1176;114464;-76
2021/08/23 03:44:15;;;;;;;4.58;3.40;;;;;;;17.16;100.00;100676.05;714587;1200;113947;-74
2021/08/23 03:59:17;;;;;;;5.67;3.00;;;;;;;16.79;100.00;100673.73;715102;1200;115167;-74
2021/08/23 04:14:20;;;;;;;2.63;2.18;;;;;;;16.77;100.00;100688.98;714245;1178;114756;-73
2021/08/23 04:29:22;;;;;;;5.30;3.40;;;;;;;16.84;100.00;100693.59;714107;1202;114430;-74
2021/08/23 04:44:24;;;;;;;49.25;21.95;;;;;;;16.68;100.00;100705.88;714015;1202;115610;-73
2021/08/23 04:59:26;;;;;;;5.58;4.05;;;;;;;16.66;100.00;100699.89;714080;1205;114918;-78
2021/08/23 05:14:28;;;;;;;5.85;3.00;;;;;;;16.61;100.00;100692.43;716823;1166;114783;-83
2021/08/23 05:29:30;;;;;;;5.93;3.05;;;;;;;16.59;100.00;100697.08;715043;1185;113892;-82
2021/08/23 05:44:33;;;;;;;4.53;3.40;;;;;;;16.61;100.00;100695.08;715949;1177;114174;-83
2021/08/23 05:59:35;;;;;;;5.95;3.40;;;;;;;16.79;100.00;100705.52;716046;1203;114578;-77
2021/08/23 06:14:40;;;;;;;3.75;2.88;;;;;;;17.15;100.00;100714.16;714705;1199;115122;-85
2021/08/23 06:29:43;;;;;;;5.28;3.13;;;;;;;17.36;100.00;100725.03;714362;1199;115974;-80
2021/08/23 06:44:46;;;;;;;6.08;2.98;;;;;;;17.40;100.00;100734.30;716303;1202;115787;-81
2021/08/23 06:59:49;;;;;;;6.10;2.40;;;;;;;17.68;100.00;100725.94;714376;1200;115274;-80
2021/08/23 07:14:52;;;;;;;3.50;2.30;;;;;;;17.77;100.00;100740.83;714830;1200;113691;-90
2021/08/23 07:29:55;;;;;;;5.18;2.93;;;;;;;18.17;100.00;100742.69;716318;1200;114336;-81
2021/08/23 07:44:57;;;;;;;5.60;2.50;;;;;;;18.77;100.00;100746.46;714731;1200;115275;-81
2021/08/23 08:00:01;;;;;;;7.48;2.88;;;;;;;19.04;100.00;100749.59;715275;1202;114211;-77
2021/08/23 08:15:07;;;;;;;8.38;2.53;;;;;;;19.29;100.00;100753.69;715130;1179;114107;-85
2021/08/23 08:30:13;;;;;;;3.08;2.30;;;;;;;19.61;100.00;100742.86;716843;1200;115569;-85
2021/08/23 08:45:17;;;;;;;4.28;2.33;;;;;;;20.09;100.00;100767.27;716509;1189;115393;-85
2021/08/23 09:00:19;;;;;;;3.28;2.80;;;;;;;20.19;97.77;100771.48;715798;1200;114992;-79
2021/08/23 09:15:22;;;;;;;5.63;2.57;;;;;;;20.07;96.70;100774.64;714402;1204;113632;-79
2021/08/23 09:30:25;;;;;;;3.88;2.30;;;;;;;20.26;96.46;100780.39;714407;1176;114900;-79
2021/08/23 09:45:27;;;;;;;2.83;2.40;;;;;;;20.52;95.09;100779.86;716390;1200;115283;-86
2021/08/23 10:00:31;;;;;;;9.58;3.35;;;;;;;21.99;94.07;100779.38;714729;1202;115567;-71
2021/08/23 10:15:34;;;;;;;4.05;2.45;;;;;;;22.25;89.25;100782.14;726126;1203;114869;-70
2021/08/23 10:30:37;;;;;;;3.98;2.18;;;;;;;22.16;89.30;100778.00;732607;1200;114437;-71
2021/08/23 10:45:41;;;;;;;5.45;2.28;;;;;;;21.82;88.62;100790.38;717546;1200;114926;-84
2021/08/23 11:00:44;;;;;;;2.93;2.33;;;;;;;21.32;89.11;100800.30;716315;1200;114268;-84
2021/08/23 11:15:47;;;;;;;3.63;2.15;;;;;;;21.47;89.73;100801.00;715334;1203;115258;-80
2021/08/23 11:30:54;;;;;;;6.95;3.00;;;;;;;21.15;89.62;100805.08;716035;1200;114028;-81
2021/08/23 11:45:58;;;;;;;4.87;2.67;;;;;;;21.37;90.47;100788.02;715813;1189;113851;-84
2021/08/23 12:01:07;;;;;;;4.10;2.50;;;;;;;21.70;89.92;100797.30;714897;1200;113841;-84
2021/08/23 12:16:14;;;;;;;6.85;3.48;;;;;;;21.40;90.74;100792.14;716362;1200;114456;-83
2021/08/23 12:31:18;;;;;;;6.98;3.43;;;;;;;20.96;92.08;100788.72;718526;1200;114312;-84
2021/08/23 12:46:21;;;;;;;8.50;4.60;;;;;;;20.69;92.60;100782.27;715798;1200;114730;-83
2021/08/23 13:01:24;;;;;;;7.40;3.30;;;;;;;20.79;93.08;100774.82;714980;1200;114975;-84
2021/08/23 13:16:30;;;;;;;12.25;6.50;;;;;;;20.59;93.30;100787.92;715362;1202;113719;-83
2021/08/23 13:31:34;;;;;;;10.13;3.93;;;;;;;20.41;92.57;100786.48;715433;1200;115546;-84
2021/08/23 13:46:37;;;;;;;5.30;3.00;;;;;;;20.43;93.50;100787.14;716154;1200;114205;-83
2021/08/23 14:01:40;;;;;;;6.03;2.95;;;;;;;20.49;94.16;100793.55;715696;1178;115549;-84
2021/08/23 14:16:42;;;;;;;5.43;2.53;;;;;;;20.59;94.31;100785.27;715688;1185;114725;-84
2021/08/23 14:31:45;;;;;;;5.83;2.98;;;;;;;20.62;94.09;100790.20;714945;1200;114432;-83
2021/08/23 14:46:47;;;;;;;5.90;3.68;;;;;;;20.58;93.29;100788.94;714570;1177;113994;-82
2021/08/23 15:01:50;;;;;;;13.27;6.47;;;;;;;20.57;92.96;100789.94;716500;1200;113959;-83
2021/08/23 15:16:53;;;;;;;5.73;3.15;;;;;;;20.48;93.22;100804.39;715150;1200;114516;-82
2021/08/23 15:31:58;;;;;;;6.40;3.27;;;;;;;20.39;93.77;100799.19;716477;1200;114165;-82
2021/08/23 15:47:00;;;;;;;17.93;8.18;;;;;;;20.40;93.59;100806.17;715969;1177;113813;-82
2021/08/23 16:02:03;;;;;;;31.40;16.53;;;;;;;20.42;93.99;100812.13;716329;1176;114149;-83
2021/08/23 16:17:06;;;;;;;26.67;12.20;;;;;;;20.36;94.09;100807.53;715009;1200;114472;-82
2021/08/23 16:32:09;;;;;;;10.30;6.85;;;;;;;20.20;94.40;100811.23;714893;1200;114972;-77
2021/08/23 16:47:12;;;;;;;9.73;7.33;;;;;;;19.93;94.55;100810.91;715555;1174;115649;-78
2021/08/23 17:02:15;;;;;;;19.00;9.27;;;;;;;19.77;94.85;100821.72;716910;1200;113988;-85
2021/08/23 17:17:17;;;;;;;9.50;4.20;;;;;;;19.62;94.70;100822.53;715932;1177;114376;-83
2021/08/23 17:32:21;;;;;;;6.23;4.27;;;;;;;19.49;93.97;100834.79;716138;1176;114359;-79
2021/08/23 17:47:23;;;;;;;6.00;3.93;;;;;;;19.31;93.97;100841.27;716465;1200;114055;-80
2021/08/23 18:02:27;;;;;;;13.75;9.45;;;;;;;19.04;94.61;100859.41;716265;1174;114201;-80
2021/08/23 18:17:30;;;;;;;23.45;11.93;;;;;;;18.97;94.80;100871.77;715665;1196;114320;-78
2021/08/23 18:32:32;;;;;;;19.15;8.05;;;;;;;18.79;95.23;100890.60;715172;1178;114217;-80
2021/08/23 18:47:35;;;;;;;19.90;8.55;;;;;;;18.66;95.39;100896.50;717133;1179;114584;-81
2021/08/23 19:02:37;;;;;;;13.05;5.70;;;;;;;18.46;95.79;100904.89;716641;1200;115026;-80
2021/08/23 19:17:40;;;;;;;11.63;5.35;;;;;;;18.25;96.36;100924.05;715907;1177;114749;-81
2021/08/23 19:32:42;;;;;;;14.03;6.65;;;;;;;18.15;96.54;100936.67;716514;1177;115085;-79
2021/08/23 19:47:45;;;;;;;9.40;4.70;;;;;;;18.01;96.06;100938.18;716048;1185;114613;-80
2021/08/23 20:02:47;;;;;;;7.87;4.13;;;;;;;17.78;95.55;100948.64;715064;1200;114136;-80
2021/08/23 20:17:50;;;;;;;8.35;3.53;;;;;;;17.61;95.86;100958.42;714529;1177;114691;-80
2021/08/23 20:32:52;;;;;;;6.75;3.63;;;;;;;17.41;96.34;100965.86;714256;1200;113871;-80
2021/08/23 20:47:56;;;;;;;6.40;2.60;;;;;;;17.34;97.34;100968.34;714174;1200;114541;-80
2021/08/23 21:02:59;;;;;;;3.95;2.03;;;;;;;17.25;97.49;100964.83;714116;1195;113953;-79
2021/08/23 21:18:02;;;;;;;5.80;2.05;;;;;;;17.23;97.74;100973.94;714297;1198;114021;-79
2021/08/23 21:33:07;;;;;;;5.10;2.00;;;;;;;17.12;96.88;100962.64;714112;1181;115538;-80
2021/08/23 21:48:09;;;;;;;6.03;2.33;;;;;;;16.97;96.38;100972.19;714030;1177;114597;-79
2021/08/23 22:03:12;;;;;;;4.20;1.88;;;;;;;16.82;96.44;100977.25;714333;1177;114000;-81
2021/08/23 22:18:15;;;;;;;3.07;1.73;;;;;;;16.71;96.42;100972.25;714291;1202;114079;-81
2021/08/23 22:33:17;;;;;;;4.03;2.50;;;;;;;16.70;96.32;100974.05;713901;1199;114033;-81
2021/08/23 22:48:19;;;;;;;4.00;2.13;;;;;;;16.62;96.63;100977.48;714132;1177;114523;-80
2021/08/23 23:03:24;;;;;;;4.63;2.30;;;;;;;16.51;96.64;100979.58;714055;1189;115305;-85
2021/08/23 23:18:26;;;;;;;3.38;2.35;;;;;;;16.21;97.12;100976.44;714403;1186;114943;-87
2021/08/23 23:33:32;;;;;;;3.90;2.20;;;;;;;16.09;97.92;100986.45;713992;1203;115699;-87
2021/08/23 23:48:35;;;;;;;5.17;2.47;;;;;;;15.88;98.50;100992.08;715545;1176;114036;-86
